sensor_id;sensor_type;location;lat;lon;timestamp;pressure;altitude;pressure_sealevel;temperature;humidity
70434;BME280;57876;47.792;12.960;2023-04-30T00:01:06;96907.38;;;14.20;56.60
70434;BME280;57876;47.792;12.960;2023-04-30T00:03:39;96913.63;;;14.21;56.84
70434;BME280;57876;47.792;12.960;2023-04-30T00:06:33;96911.19;;;14.19;56.38
70434;BME280;57876;47.792;12.960;2023-04-30T00:09:00;96913.91;;;14.19;56.54
70434;BME280;57876;47.792;12.960;2023-04-30T00:11:41;96916.84;;;14.23;56.54
70434;BME280;57876;47.792;12.960;2023-04-30T00:14:13;96907.97;;;14.17;56.44
70434;BME280;57876;47.792;12.960;2023-04-30T00:16:43;96911.00;;;14.16;56.64
70434;BME280;57876;47.792;12.960;2023-04-30T00:19:10;96923.88;;;14.24;56.29
70434;BME280;57876;47.792;12.960;2023-04-30T00:21:34;96917.44;;;14.20;56.63
70434;BME280;57876;47.792;12.960;2023-04-30T00:24:04;96906.38;;;14.16;56.34
70434;BME280;57876;47.792;12.960;2023-04-30T00:26:40;96905.56;;;14.16;56.56
70434;BME280;57876;47.792;12.960;2023-04-30T00:29:09;96904.75;;;14.15;56.65
70434;BME280;57876;47.792;12.960;2023-04-30T00:31:36;96905.44;;;14.21;56.53
70434;BME280;57876;47.792;12.960;2023-04-30T00:34:04;96893.88;;;14.15;56.72
70434;BME280;57876;47.792;12.960;2023-04-30T00:36:28;96898.72;;;14.18;56.48
70434;BME280;57876;47.792;12.960;2023-04-30T00:38:53;96900.63;;;14.18;56.63
70434;BME280;57876;47.792;12.960;2023-04-30T00:41:21;96908.97;;;14.21;56.38
70434;BME280;57876;47.792;12.960;2023-04-30T00:43:46;96896.78;;;14.19;56.08
70434;BME280;57876;47.792;12.960;2023-04-30T00:46:10;96900.31;;;14.19;56.50
70434;BME280;57876;47.792;12.960;2023-04-30T00:48:35;96903.34;;;14.18;56.25
70434;BME280;57876;47.792;12.960;2023-04-30T00:51:01;96901.94;;;14.20;56.63
70434;BME280;57876;47.792;12.960;2023-04-30T00:53:27;96897.91;;;14.18;56.35
70434;BME280;57876;47.792;12.960;2023-04-30T00:55:51;96903.53;;;14.21;56.69
70434;BME280;57876;47.792;12.960;2023-04-30T00:58:17;96900.63;;;14.18;56.39
70434;BME280;57876;47.792;12.960;2023-04-30T01:00:41;96901.09;;;14.20;56.58
70434;BME280;57876;47.792;12.960;2023-04-30T01:03:10;96908.78;;;14.18;56.58
70434;BME280;57876;47.792;12.960;2023-04-30T01:05:34;96901.44;;;14.18;56.63
70434;BME280;57876;47.792;12.960;2023-04-30T01:07:59;96915.03;;;14.18;56.34
70434;BME280;57876;47.792;12.960;2023-04-30T01:10:29;96899.31;;;14.15;56.50
70434;BME280;57876;47.792;12.960;2023-04-30T01:13:14;96909.38;;;14.15;56.37
70434;BME280;57876;47.792;12.960;2023-04-30T01:15:50;96917.94;;;14.22;56.48
70434;BME280;57876;47.792;12.960;2023-04-30T01:18:53;96921.78;;;14.21;56.43
70434;BME280;57876;47.792;12.960;2023-04-30T01:21:11;96922.06;;;14.19;56.69
70434;BME280;57876;47.792;12.960;2023-04-30T01:24:14;96922.38;;;14.18;56.52
70434;BME280;57876;47.792;12.960;2023-04-30T01:29:25;96933.75;;;14.20;56.13
70434;BME280;57876;47.792;12.960;2023-04-30T01:31:50;96935.66;;;14.19;56.45
70434;BME280;57876;47.792;12.960;2023-04-30T01:34:15;96944.34;;;14.21;56.42
70434;BME280;57876;47.792;12.960;2023-04-30T01:48:15;96945.47;;;14.20;56.12
70434;BME280;57876;47.792;12.960;2023-04-30T01:50:57;96948.19;;;14.20;56.23
70434;BME280;57876;47.792;12.960;2023-04-30T01:53:39;96948.19;;;14.20;56.29
70434;BME280;57876;47.792;12.960;2023-04-30T01:56:09;96948.97;;;14.21;56.37
70434;BME280;57876;47.792;12.960;2023-04-30T01:58:36;96954.72;;;14.19;55.97
70434;BME280;57876;47.792;12.960;2023-04-30T02:01:02;96945.25;;;14.17;56.44
70434;BME280;57876;47.792;12.960;2023-04-30T02:03:26;96950.06;;;14.20;56.38
70434;BME280;57876;47.792;12.960;2023-04-30T02:05:52;96945.56;;;14.15;55.81
70434;BME280;57876;47.792;12.960;2023-04-30T02:08:16;96946.03;;;14.17;56.02
70434;BME280;57876;47.792;12.960;2023-04-30T02:10:40;96960.47;;;14.18;56.46
70434;BME280;57876;47.792;12.960;2023-04-30T02:13:05;96952.59;;;14.16;56.26
70434;BME280;57876;47.792;12.960;2023-04-30T02:15:32;96955.31;;;14.16;56.31
70434;BME280;57876;47.792;12.960;2023-04-30T02:17:56;96955.59;;;14.15;56.44
70434;BME280;57876;47.792;12.960;2023-04-30T02:20:21;96951.81;;;14.16;56.40
70434;BME280;57876;47.792;12.960;2023-04-30T02:22:45;96953.91;;;14.19;56.51
70434;BME280;57876;47.792;12.960;2023-04-30T02:25:10;96965.59;;;14.19;56.27
70434;BME280;57876;47.792;12.960;2023-04-30T02:27:35;96959.34;;;14.19;55.93
70434;BME280;57876;47.792;12.960;2023-04-30T02:30:00;96959.63;;;14.17;55.93
70434;BME280;57876;47.792;12.960;2023-04-30T02:32:24;96968.31;;;14.19;56.08
70434;BME280;57876;47.792;12.960;2023-04-30T02:34:49;96956.63;;;14.19;56.10
70434;BME280;57876;47.792;12.960;2023-04-30T02:37:13;96958.84;;;14.17;55.75
70434;BME280;57876;47.792;12.960;2023-04-30T02:39:38;96957.25;;;14.16;56.18
70434;BME280;57876;47.792;12.960;2023-04-30T02:42:02;96960.75;;;14.16;56.26
70434;BME280;57876;47.792;12.960;2023-04-30T02:44:28;96967.22;;;14.20;55.77
70434;BME280;57876;47.792;12.960;2023-04-30T02:46:52;96960.75;;;14.16;56.43
70434;BME280;57876;47.792;12.960;2023-04-30T02:49:16;96969.94;;;14.20;55.93
70434;BME280;57876;47.792;12.960;2023-04-30T02:51:41;96969.72;;;14.17;55.85
70434;BME280;57876;47.792;12.960;2023-04-30T02:54:10;96964.59;;;14.15;55.71
70434;BME280;57876;47.792;12.960;2023-04-30T02:56:35;96965.19;;;14.12;56.28
70434;BME280;57876;47.792;12.960;2023-04-30T02:59:00;96969.72;;;14.17;55.96
70434;BME280;57876;47.792;12.960;2023-04-30T03:01:24;96971.03;;;14.19;55.95
70434;BME280;57876;47.792;12.960;2023-04-30T03:03:49;96962.97;;;14.14;55.81
70434;BME280;57876;47.792;12.960;2023-04-30T03:06:13;96969.72;;;14.17;56.01
70434;BME280;57876;47.792;12.960;2023-04-30T03:08:40;96976.47;;;14.19;55.95
70434;BME280;57876;47.792;12.960;2023-04-30T03:11:04;96972.16;;;14.18;56.05
70434;BME280;57876;47.792;12.960;2023-04-30T03:13:29;96971.63;;;14.16;56.16
70434;BME280;57876;47.792;12.960;2023-04-30T03:16:01;96974.34;;;14.16;56.09
70434;BME280;57876;47.792;12.960;2023-04-30T03:18:29;96975.66;;;14.19;56.32
70434;BME280;57876;47.792;12.960;2023-04-30T03:20:53;96977.09;;;14.16;55.99
70434;BME280;57876;47.792;12.960;2023-04-30T03:23:21;96973.56;;;14.16;56.07
70434;BME280;57876;47.792;12.960;2023-04-30T03:25:45;96973.25;;;14.17;55.97
70434;BME280;57876;47.792;12.960;2023-04-30T03:28:13;96979.78;;;14.16;55.61
70434;BME280;57876;47.792;12.960;2023-04-30T03:30:38;96974.34;;;14.16;55.98
70434;BME280;57876;47.792;12.960;2023-04-30T03:33:03;96990.69;;;14.16;55.94
70434;BME280;57876;47.792;12.960;2023-04-30T03:35:29;96975.47;;;14.15;56.25
70434;BME280;57876;47.792;12.960;2023-04-30T03:37:54;96990.38;;;14.18;56.11
70434;BME280;57876;47.792;12.960;2023-04-30T03:40:19;96977.09;;;14.16;56.15
70434;BME280;57876;47.792;12.960;2023-04-30T03:42:43;96978.19;;;14.15;55.80
70434;BME280;57876;47.792;12.960;2023-04-30T03:45:08;96976.88;;;14.13;55.78
70434;BME280;57876;47.792;12.960;2023-04-30T03:47:35;96979.28;;;14.14;55.82
70434;BME280;57876;47.792;12.960;2023-04-30T03:50:00;96977.69;;;14.13;56.19
70434;BME280;57876;47.792;12.960;2023-04-30T03:52:24;96974.47;;;14.11;55.85
70434;BME280;57876;47.792;12.960;2023-04-30T03:54:49;96984.72;;;14.14;55.82
70434;BME280;57876;47.792;12.960;2023-04-30T03:57:14;96969.34;;;14.09;55.87
70434;BME280;57876;47.792;12.960;2023-04-30T03:59:39;96990.16;;;14.14;55.50
70434;BME280;57876;47.792;12.960;2023-04-30T04:02:06;96984.72;;;14.14;56.08
70434;BME280;57876;47.792;12.960;2023-04-30T04:04:30;96985.84;;;14.13;56.00
70434;BME280;57876;47.792;12.960;2023-04-30T04:06:55;96973.94;;;14.09;55.73
70434;BME280;57876;47.792;12.960;2023-04-30T04:09:19;96979.59;;;14.13;55.65
70434;BME280;57876;47.792;12.960;2023-04-30T04:11:46;96976.56;;;14.14;55.90
70434;BME280;57876;47.792;12.960;2023-04-30T04:14:11;96978.78;;;14.12;55.86
70434;BME280;57876;47.792;12.960;2023-04-30T04:16:36;96991.28;;;14.13;55.57
70434;BME280;57876;47.792;12.960;2023-04-30T04:19:00;96979.09;;;14.10;55.54
70434;BME280;57876;47.792;12.960;2023-04-30T04:21:25;96983.75;;;14.10;56.05
70434;BME280;57876;47.792;12.960;2023-04-30T04:23:50;96992.69;;;14.10;55.99
70434;BME280;57876;47.792;12.960;2023-04-30T04:26:14;97000.44;;;14.17;55.73
70434;BME280;57876;47.792;12.960;2023-04-30T04:28:39;96999.97;;;14.15;55.58
70434;BME280;57876;47.792;12.960;2023-04-30T04:31:04;96998.31;;;14.14;55.75
70434;BME280;57876;47.792;12.960;2023-04-30T04:33:31;97003.78;;;14.14;55.48
70434;BME280;57876;47.792;12.960;2023-04-30T04:35:55;96997.53;;;14.14;55.93
70434;BME280;57876;47.792;12.960;2023-04-30T04:38:21;97005.88;;;14.17;55.65
70434;BME280;57876;47.792;12.960;2023-04-30T04:40:52;97006.50;;;14.14;55.64
70434;BME280;57876;47.792;12.960;2023-04-30T04:43:17;97002.97;;;14.14;55.79
70434;BME280;57876;47.792;12.960;2023-04-30T04:45:41;96999.44;;;14.13;55.55
70434;BME280;57876;47.792;12.960;2023-04-30T04:48:06;96998.31;;;14.14;55.62
70434;BME280;57876;47.792;12.960;2023-04-30T04:50:30;96998.84;;;14.16;55.96
70434;BME280;57876;47.792;12.960;2023-04-30T04:52:55;96997.00;;;14.12;55.67
70434;BME280;57876;47.792;12.960;2023-04-30T04:55:19;96990.97;;;14.15;55.56
70434;BME280;57876;47.792;12.960;2023-04-30T04:57:44;97000.44;;;14.17;55.54
70434;BME280;57876;47.792;12.960;2023-04-30T05:00:08;96994.00;;;14.13;55.49
70434;BME280;57876;47.792;12.960;2023-04-30T05:02:34;96995.94;;;14.13;55.29
70434;BME280;57876;47.792;12.960;2023-04-30T05:04:59;96999.63;;;14.17;55.69
70434;BME280;57876;47.792;12.960;2023-04-30T05:07:24;96998.03;;;14.16;55.63
70434;BME280;57876;47.792;12.960;2023-04-30T05:09:49;96999.97;;;14.15;55.51
70434;BME280;57876;47.792;12.960;2023-04-30T05:12:13;96996.41;;;14.15;55.45
70434;BME280;57876;47.792;12.960;2023-04-30T05:14:38;96990.97;;;14.15;55.53
70434;BME280;57876;47.792;12.960;2023-04-30T05:17:03;96994.81;;;14.14;55.43
70434;BME280;57876;47.792;12.960;2023-04-30T05:19:27;96993.22;;;14.13;55.64
70434;BME280;57876;47.792;12.960;2023-04-30T05:21:55;96996.72;;;14.13;55.62
70434;BME280;57876;47.792;12.960;2023-04-30T05:24:21;97001.06;;;14.14;55.49
70434;BME280;57876;47.792;12.960;2023-04-30T05:26:46;97000.25;;;14.14;55.59
70434;BME280;57876;47.792;12.960;2023-04-30T05:29:11;97005.69;;;14.14;55.21
70434;BME280;57876;47.792;12.960;2023-04-30T05:31:35;97012.94;;;14.18;55.58
70434;BME280;57876;47.792;12.960;2023-04-30T05:33:59;97001.38;;;14.13;55.50
70434;BME280;57876;47.792;12.960;2023-04-30T05:36:24;97011.94;;;14.14;55.56
70434;BME280;57876;47.792;12.960;2023-04-30T05:38:49;97014.88;;;14.18;55.46
70434;BME280;57876;47.792;12.960;2023-04-30T05:41:16;97009.22;;;14.14;55.40
70434;BME280;57876;47.792;12.960;2023-04-30T05:43:40;97015.66;;;14.18;55.22
70434;BME280;57876;47.792;12.960;2023-04-30T05:46:05;97009.53;;;14.13;55.62
70434;BME280;57876;47.792;12.960;2023-04-30T05:48:31;97011.94;;;14.14;55.33
70434;BME280;57876;47.792;12.960;2023-04-30T05:50:56;97017.59;;;14.18;55.09
70434;BME280;57876;47.792;12.960;2023-04-30T05:53:20;97007.28;;;14.15;55.46
70434;BME280;57876;47.792;12.960;2023-04-30T05:55:45;97022.72;;;14.19;55.57
70434;BME280;57876;47.792;12.960;2023-04-30T05:58:09;97021.09;;;14.18;55.68
70434;BME280;57876;47.792;12.960;2023-04-30T06:00:34;97014.66;;;14.14;55.28
70434;BME280;57876;47.792;12.960;2023-04-30T06:02:59;97007.09;;;14.11;55.23
70434;BME280;57876;47.792;12.960;2023-04-30T06:05:23;97015.16;;;14.16;55.62
70434;BME280;57876;47.792;12.960;2023-04-30T06:07:48;97027.63;;;14.17;55.40
70434;BME280;57876;47.792;12.960;2023-04-30T06:10:12;97019.81;;;14.16;55.37
70434;BME280;57876;47.792;12.960;2023-04-30T06:12:37;97018.38;;;14.18;55.43
70434;BME280;57876;47.792;12.960;2023-04-30T06:15:03;97021.63;;;14.20;55.51
70434;BME280;57876;47.792;12.960;2023-04-30T06:17:27;97011.63;;;14.16;55.15
70434;BME280;57876;47.792;12.960;2023-04-30T06:19:52;97015.16;;;14.16;55.47
70434;BME280;57876;47.792;12.960;2023-04-30T06:22:19;97020.78;;;14.20;55.22
70434;BME280;57876;47.792;12.960;2023-04-30T06:24:43;97020.22;;;14.23;54.92
70434;BME280;57876;47.792;12.960;2023-04-30T06:27:08;97022.63;;;14.24;55.23
70434;BME280;57876;47.792;12.960;2023-04-30T06:29:35;97024.81;;;14.22;55.59
70434;BME280;57876;47.792;12.960;2023-04-30T06:32:02;97034.81;;;14.27;55.38
70434;BME280;57876;47.792;12.960;2023-04-30T06:34:26;97033.69;;;14.28;55.44
70434;BME280;57876;47.792;12.960;2023-04-30T06:36:51;97027.25;;;14.24;55.34
70434;BME280;57876;47.792;12.960;2023-04-30T06:39:18;97024.81;;;14.22;55.49
70434;BME280;57876;47.792;12.960;2023-04-30T06:41:48;97028.94;;;14.20;55.67
70434;BME280;57876;47.792;12.960;2023-04-30T06:44:23;97031.38;;;14.21;55.49
70434;BME280;57876;47.792;12.960;2023-04-30T06:46:48;97026.22;;;14.20;55.68
70434;BME280;57876;47.792;12.960;2023-04-30T06:49:19;97028.66;;;14.21;55.71
70434;BME280;57876;47.792;12.960;2023-04-30T06:51:46;97018.06;;;14.20;55.72
70434;BME280;57876;47.792;12.960;2023-04-30T06:54:14;97018.38;;;14.18;55.48
70434;BME280;57876;47.792;12.960;2023-04-30T06:56:49;97028.66;;;14.21;55.20
70434;BME280;57876;47.792;12.960;2023-04-30T06:59:17;97019.19;;;14.19;55.72
70434;BME280;57876;47.792;12.960;2023-04-30T07:01:41;97020.22;;;14.23;55.35
70434;BME280;57876;47.792;12.960;2023-04-30T07:04:08;97035.09;;;14.25;55.70
70434;BME280;57876;47.792;12.960;2023-04-30T07:06:35;97036.22;;;14.24;55.15
70434;BME280;57876;47.792;12.960;2023-04-30T07:09:06;97035.41;;;14.24;55.44
70434;BME280;57876;47.792;12.960;2023-04-30T07:11:30;97033.59;;;14.19;55.54
70434;BME280;57876;47.792;12.960;2023-04-30T07:13:57;97034.09;;;14.21;55.71
70434;BME280;57876;47.792;12.960;2023-04-30T07:16:24;97025.44;;;14.19;55.53
70434;BME280;57876;47.792;12.960;2023-04-30T07:18:54;97030.25;;;14.22;55.59
70434;BME280;57876;47.792;12.960;2023-04-30T07:21:26;97034.63;;;14.23;55.70
70434;BME280;57876;47.792;12.960;2023-04-30T07:28:59;97035.09;;;14.25;55.54
70434;BME280;57876;47.792;12.960;2023-04-30T07:31:24;97034.63;;;14.23;55.16
70434;BME280;57876;47.792;12.960;2023-04-30T07:33:49;97030.25;;;14.22;55.07
70434;BME280;57876;47.792;12.960;2023-04-30T07:36:13;97033.81;;;14.23;55.61
70434;BME280;57876;47.792;12.960;2023-04-30T07:38:40;97027.06;;;14.20;55.36
70434;BME280;57876;47.792;12.960;2023-04-30T07:41:07;97027.88;;;14.21;55.29
70434;BME280;57876;47.792;12.960;2023-04-30T07:51:20;97019.38;;;14.22;55.18
70434;BME280;57876;47.792;12.960;2023-04-30T07:53:55;97035.81;;;14.31;55.19
70434;BME280;57876;47.792;12.960;2023-04-30T07:56:19;97024.81;;;14.22;55.34
70434;BME280;57876;47.792;12.960;2023-04-30T07:58:44;97030.38;;;14.31;54.96
70434;BME280;57876;47.792;12.960;2023-04-30T08:01:09;97043.16;;;14.30;55.32
70434;BME280;57876;47.792;12.960;2023-04-30T08:03:33;97035.31;;;14.29;55.17
70434;BME280;57876;47.792;12.960;2023-04-30T08:05:58;97037.72;;;14.30;55.05
70434;BME280;57876;47.792;12.960;2023-04-30T08:08:22;97036.63;;;14.31;55.02
70434;BME280;57876;47.792;12.960;2023-04-30T08:10:47;97036.63;;;14.31;55.03
70434;BME280;57876;47.792;12.960;2023-04-30T08:13:11;97029.66;;;14.25;54.78
70434;BME280;57876;47.792;12.960;2023-04-30T08:15:38;97022.00;;;14.27;55.29
70434;BME280;57876;47.792;12.960;2023-04-30T08:18:03;97031.19;;;14.31;55.10
70434;BME280;57876;47.792;12.960;2023-04-30T08:20:28;97043.38;;;14.34;55.10
70434;BME280;57876;47.792;12.960;2023-04-30T08:22:53;97043.38;;;14.34;55.08
70434;BME280;57876;47.792;12.960;2023-04-30T08:25:17;97041.47;;;14.35;54.88
70434;BME280;57876;47.792;12.960;2023-04-30T08:27:42;97037.94;;;14.34;54.95
70434;BME280;57876;47.792;12.960;2023-04-30T08:30:06;97031.19;;;14.31;54.60
70434;BME280;57876;47.792;12.960;2023-04-30T08:32:35;97032.59;;;14.29;55.01
70434;BME280;57876;47.792;12.960;2023-04-30T08:34:59;97033.91;;;14.31;54.81
70434;BME280;57876;47.792;12.960;2023-04-30T08:37:24;97029.56;;;14.30;54.49
70434;BME280;57876;47.792;12.960;2023-04-30T08:39:48;97033.91;;;14.31;54.63
70434;BME280;57876;47.792;12.960;2023-04-30T08:42:13;97027.94;;;14.29;54.77
70434;BME280;57876;47.792;12.960;2023-04-30T08:44:38;97028.47;;;14.31;54.80
70434;BME280;57876;47.792;12.960;2023-04-30T08:47:07;97029.88;;;14.29;54.73
70434;BME280;57876;47.792;12.960;2023-04-30T08:49:37;97024.63;;;14.32;54.70
70434;BME280;57876;47.792;12.960;2023-04-30T08:52:06;97030.06;;;14.32;54.58
70434;BME280;57876;47.792;12.960;2023-04-30T08:54:32;97026.84;;;14.30;54.63
70434;BME280;57876;47.792;12.960;2023-04-30T08:56:56;97024.63;;;14.32;54.39
70434;BME280;57876;47.792;12.960;2023-04-30T08:59:21;97021.38;;;14.30;54.61
70434;BME280;57876;47.792;12.960;2023-04-30T09:01:45;97023.03;;;14.31;54.82
70434;BME280;57876;47.792;12.960;2023-04-30T09:04:10;97023.03;;;14.31;54.67
70434;BME280;57876;47.792;12.960;2023-04-30T09:06:34;97025.22;;;14.29;54.59
70434;BME280;57876;47.792;12.960;2023-04-30T09:09:08;97028.47;;;14.31;54.76
70434;BME280;57876;47.792;12.960;2023-04-30T09:11:34;97019.28;;;14.27;54.83
70434;BME280;57876;47.792;12.960;2023-04-30T09:14:00;97022.22;;;14.31;54.75
70434;BME280;57876;47.792;12.960;2023-04-30T09:16:26;97020.31;;;14.31;54.24
70434;BME280;57876;47.792;12.960;2023-04-30T09:18:51;97026.84;;;14.30;54.31
70434;BME280;57876;47.792;12.960;2023-04-30T09:21:16;97025.75;;;14.31;54.48
70434;BME280;57876;47.792;12.960;2023-04-30T09:23:57;97021.19;;;14.27;54.65
70434;BME280;57876;47.792;12.960;2023-04-30T09:26:30;97017.34;;;14.28;54.35
70434;BME280;57876;47.792;12.960;2023-04-30T09:28:56;97015.94;;;14.30;54.25
70434;BME280;57876;47.792;12.960;2023-04-30T09:31:24;97024.13;;;14.30;54.36
70434;BME280;57876;47.792;12.960;2023-04-30T09:33:49;97027.66;;;14.31;54.02
70434;BME280;57876;47.792;12.960;2023-04-30T09:36:14;97022.22;;;14.31;54.54
70434;BME280;57876;47.792;12.960;2023-04-30T09:38:38;97014.34;;;14.29;54.61
70434;BME280;57876;47.792;12.960;2023-04-30T09:41:03;97018.47;;;14.27;54.37
70434;BME280;57876;47.792;12.960;2023-04-30T09:43:29;97019.00;;;14.29;54.46
70434;BME280;57876;47.792;12.960;2023-04-30T09:45:54;97009.72;;;14.30;54.40
70434;BME280;57876;47.792;12.960;2023-04-30T09:48:22;97019.00;;;14.29;54.33
70434;BME280;57876;47.792;12.960;2023-04-30T09:50:47;97018.66;;;14.30;54.61
70434;BME280;57876;47.792;12.960;2023-04-30T09:53:13;97021.38;;;14.30;54.46
70434;BME280;57876;47.792;12.960;2023-04-30T09:55:48;97013.56;;;14.29;54.39
70434;BME280;57876;47.792;12.960;2023-04-30T09:58:14;97012.44;;;14.30;54.37
70434;BME280;57876;47.792;12.960;2023-04-30T10:00:41;97005.38;;;14.29;54.30
70434;BME280;57876;47.792;12.960;2023-04-30T10:03:10;97015.94;;;14.30;54.41
70434;BME280;57876;47.792;12.960;2023-04-30T10:05:55;97007.78;;;14.30;54.49
70434;BME280;57876;47.792;12.960;2023-04-30T10:08:25;97000.75;;;14.29;54.39
70434;BME280;57876;47.792;12.960;2023-04-30T10:10:57;96997.84;;;14.26;54.22
70434;BME280;57876;47.792;12.960;2023-04-30T10:13:25;97002.16;;;14.27;54.22
70434;BME280;57876;47.792;12.960;2023-04-30T10:15:57;97001.25;;;14.31;54.00
70434;BME280;57876;47.792;12.960;2023-04-30T10:18:32;97005.06;;;14.30;54.20
70434;BME280;57876;47.792;12.960;2023-04-30T10:20:58;96989.34;;;14.27;54.33
70434;BME280;57876;47.792;12.960;2023-04-30T10:23:25;97002.34;;;14.30;54.04
70434;BME280;57876;47.792;12.960;2023-04-30T10:25:50;96995.00;;;14.31;54.07
70434;BME280;57876;47.792;12.960;2023-04-30T10:28:14;96985.84;;;14.27;54.18
70434;BME280;57876;47.792;12.960;2023-04-30T10:30:40;96991.47;;;14.30;54.10
70434;BME280;57876;47.792;12.960;2023-04-30T10:36:03;96980.91;;;14.29;54.03
70434;BME280;57876;47.792;12.960;2023-04-30T10:38:30;96964.38;;;14.25;54.31
70434;BME280;57876;47.792;12.960;2023-04-30T10:40:56;96967.59;;;14.27;54.21
70434;BME280;57876;47.792;12.960;2023-04-30T10:43:23;96962.94;;;14.28;54.02
70434;BME280;57876;47.792;12.960;2023-04-30T10:45:47;96957.84;;;14.26;54.46
70434;BME280;57876;47.792;12.960;2023-04-30T10:48:16;96956.41;;;14.29;54.19
70434;BME280;57876;47.792;12.960;2023-04-30T10:50:50;96958.34;;;14.28;54.17
70434;BME280;57876;47.792;12.960;2023-04-30T10:53:18;96952.91;;;14.28;54.05
70434;BME280;57876;47.792;12.960;2023-04-30T10:55:53;96963.78;;;14.28;54.12
70434;BME280;57876;47.792;12.960;2023-04-30T10:58:24;96955.63;;;14.28;54.14
70434;BME280;57876;47.792;12.960;2023-04-30T11:01:11;96959.13;;;14.29;54.08
70434;BME280;57876;47.792;12.960;2023-04-30T11:03:37;96964.59;;;14.29;54.35
70434;BME280;57876;47.792;12.960;2023-04-30T11:06:22;96968.38;;;14.28;53.88
70434;BME280;57876;47.792;12.960;2023-04-30T11:08:49;96954.59;;;14.24;54.27
70434;BME280;57876;47.792;12.960;2023-04-30T11:11:18;96963.78;;;14.28;53.99
70434;BME280;57876;47.792;12.960;2023-04-30T11:13:46;96948.53;;;14.27;54.34
70434;BME280;57876;47.792;12.960;2023-04-30T11:16:10;96946.44;;;14.24;54.31
70434;BME280;57876;47.792;12.960;2023-04-30T11:18:41;96953.47;;;14.25;53.85
70434;BME280;57876;47.792;12.960;2023-04-30T11:21:07;96948.88;;;14.26;54.11
70434;BME280;57876;47.792;12.960;2023-04-30T11:23:33;96957.03;;;14.26;54.00
70434;BME280;57876;47.792;12.960;2023-04-30T11:25:59;96945.31;;;14.25;53.95
70434;BME280;57876;47.792;12.960;2023-04-30T11:28:25;96948.88;;;14.26;53.89
70434;BME280;57876;47.792;12.960;2023-04-30T11:30:57;96945.81;;;14.27;54.14
70434;BME280;57876;47.792;12.960;2023-04-30T11:33:23;96943.44;;;14.26;53.84
70434;BME280;57876;47.792;12.960;2023-04-30T11:35:48;96943.91;;;14.28;53.86
70434;BME280;57876;47.792;12.960;2023-04-30T11:38:16;96938.59;;;14.23;53.90
70434;BME280;57876;47.792;12.960;2023-04-30T11:40:42;96937.66;;;14.27;53.90
70434;BME280;57876;47.792;12.960;2023-04-30T11:43:07;96946.16;;;14.26;54.17
70434;BME280;57876;47.792;12.960;2023-04-30T11:45:32;96941.81;;;14.25;53.97
70434;BME280;57876;47.792;12.960;2023-04-30T11:47:56;96937.28;;;14.20;54.10
70434;BME280;57876;47.792;12.960;2023-04-30T11:50:25;96938.47;;;14.28;54.22
70434;BME280;57876;47.792;12.960;2023-04-30T11:52:52;96934.94;;;14.27;53.77
70434;BME280;57876;47.792;12.960;2023-04-30T11:55:19;96932.22;;;14.27;53.82
70434;BME280;57876;47.792;12.960;2023-04-30T11:57:49;96942.81;;;14.29;53.89
70434;BME280;57876;47.792;12.960;2023-04-30T12:00:17;96940.91;;;14.29;53.74
70434;BME280;57876;47.792;12.960;2023-04-30T12:02:43;96929.81;;;14.26;53.90
70434;BME280;57876;47.792;12.960;2023-04-30T12:05:19;96926.28;;;14.25;53.79
70434;BME280;57876;47.792;12.960;2023-04-30T12:07:58;96927.28;;;14.29;53.79
70434;BME280;57876;47.792;12.960;2023-04-30T12:10:23;96928.41;;;14.28;53.81
70434;BME280;57876;47.792;12.960;2023-04-30T12:12:49;96927.91;;;14.26;53.91
70434;BME280;57876;47.792;12.960;2023-04-30T12:15:19;96930.31;;;14.28;53.83
70434;BME280;57876;47.792;12.960;2023-04-30T12:17:46;96924.06;;;14.27;53.64
70434;BME280;57876;47.792;12.960;2023-04-30T12:20:14;96927.59;;;14.28;53.60
70434;BME280;57876;47.792;12.960;2023-04-30T12:22:39;96924.06;;;14.27;53.97
70434;BME280;57876;47.792;12.960;2023-04-30T12:25:11;96915.91;;;14.27;53.60
70434;BME280;57876;47.792;12.960;2023-04-30T12:27:36;96915.09;;;14.27;54.14
70434;BME280;57876;47.792;12.960;2023-04-30T12:30:04;96913.97;;;14.28;53.65
70434;BME280;57876;47.792;12.960;2023-04-30T12:32:31;96913.97;;;14.28;54.11
70434;BME280;57876;47.792;12.960;2023-04-30T12:35:00;96899.06;;;14.25;54.33
70434;BME280;57876;47.792;12.960;2023-04-30T12:37:25;96904.22;;;14.27;53.79
70434;BME280;57876;47.792;12.960;2023-04-30T12:39:50;96896.69;;;14.24;53.83
70434;BME280;57876;47.792;12.960;2023-04-30T12:42:19;96890.72;;;14.22;54.09
70434;BME280;57876;47.792;12.960;2023-04-30T12:44:44;96889.31;;;14.24;54.13
70434;BME280;57876;47.792;12.960;2023-04-30T12:47:09;96889.03;;;14.26;53.85
70434;BME280;57876;47.792;12.960;2023-04-30T12:49:33;96883.88;;;14.24;53.51
70434;BME280;57876;47.792;12.960;2023-04-30T12:52:04;96892.53;;;14.26;53.57
70434;BME280;57876;47.792;12.960;2023-04-30T12:54:31;96893.63;;;14.25;53.85
70434;BME280;57876;47.792;12.960;2023-04-30T12:56:58;96889.81;;;14.26;53.77
70434;BME280;57876;47.792;12.960;2023-04-30T12:59:24;96882.75;;;14.25;53.69
70434;BME280;57876;47.792;12.960;2023-04-30T13:01:48;96885.00;;;14.23;53.74
70434;BME280;57876;47.792;12.960;2023-04-30T13:04:13;96879.56;;;14.23;53.90
70434;BME280;57876;47.792;12.960;2023-04-30T13:06:37;96874.13;;;14.23;53.62
70434;BME280;57876;47.792;12.960;2023-04-30T13:09:02;96884.19;;;14.23;53.44
70434;BME280;57876;47.792;12.960;2023-04-30T13:11:27;96876.22;;;14.26;53.86
70434;BME280;57876;47.792;12.960;2023-04-30T13:13:54;96859.50;;;14.19;53.75
70434;BME280;57876;47.792;12.960;2023-04-30T13:16:22;96860.50;;;14.23;54.02
70434;BME280;57876;47.792;12.960;2023-04-30T13:18:47;96860.81;;;14.22;53.70